Time,TemperatureF,DewpointF,PressureIn,WindDirection,WindDirectionDegrees,WindSpeedMPH,WindSpeedGustMPH,Humidity,HourlyPrecipIn,Conditions,Clouds,dailyrainin,SoftwareType,DateUTC
2013-09-19 07:00:00,47.9,44.8,30.03,NNW,338,0.0,0.0,89,0.00,,,0.00,WUHU216HW,2013-09-19 11:00:00,
2013-09-19 07:05:00,47.9,44.8,30.03,NNW,338,0.0,0.0,89,0.00,,,0.00,WUHU216HW,2013-09-19 11:05:00,
2013-09-19 07:10:00,48.1,45.0,30.03,NE,46,0.3,0.4,89,0.00,,,0.00,WUHU216HW,2013-09-19 11:10:00,
2013-09-19 07:15:00,48.2,45.2,30.03,NNW,338,0.4,0.4,89,0.00,,,0.00,WUHU216HW,2013-09-19 11:15:00,
2013-09-19 07:20:00,48.4,45.4,30.03,NNW,338,0.0,0.4,89,0.00,,,0.00,WUHU216HW,2013-09-19 11:20:00,
2013-09-19 07:25:00,48.6,45.5,30.03,NNW,338,0.0,0.0,89,0.00,,,0.00,WUHU216HW,2013-09-19 11:25:00,
2013-09-19 07:30:00,49.0,45.5,30.03,NNW,338,0.2,0.2,88,0.00,,,0.00,WUHU216HW,2013-09-19 11:30:00,
2013-09-19 07:35:00,49.3,45.9,30.02,NNW,338,0.0,0.2,88,0.00,,,0.00,WUHU216HW,2013-09-19 11:35:00,
2013-09-19 07:40:00,49.5,46.1,30.02,North,0,0.0,0.2,88,0.00,,,0.00,WUHU216HW,2013-09-19 11:40:00,
2013-09-19 07:45:00,49.5,46.1,30.02,North,0,0.0,0.0,88,0.00,,,0.00,WUHU216HW,2013-09-19 11:45:00,
2013-09-19 07:50:00,49.7,46.3,30.03,ESE,113,0.4,0.4,88,0.00,,,0.00,WUHU216HW,2013-09-19 11:50:00,
2013-09-19 07:55:00,49.9,46.4,30.03,SE,135,0.0,0.4,88,0.00,,,0.00,WUHU216HW,2013-09-19 11:55:00,
2013-09-19 08:00:00,50.0,46.5,30.03,SSW,203,0.0,0.4,88,0.00,,,0.00,WUHU216HW,2013-09-19 12:00:00,
2013-09-19 08:05:00,50.4,46.9,30.03,SSW,203,0.0,0.4,88,0.00,,,0.00,WUHU216HW,2013-09-19 12:05:00,
2013-09-19 08:10:00,50.8,47.3,30.03,SSW,203,0.0,0.0,88,0.00,,,0.00,WUHU216HW,2013-09-19 12:10:00,
2013-09-19 08:15:00,50.8,47.3,30.03,SSW,203,0.0,0.0,88,0.00,,,0.00,WUHU216HW,2013-09-19 12:15:00,
2013-09-19 08:20:00,50.9,47.8,30.03,SSW,203,0.0,0.0,89,0.00,,,0.00,WUHU216HW,2013-09-19 12:20:00,
2013-09-19 08:25:00,51.3,48.2,30.03,SSW,203,0.0,0.0,89,0.00,,,0.00,WUHU216HW,2013-09-19 12:25:00,
2013-09-19 08:30:00,51.7,48.2,30.03,SSW,203,0.0,0.0,88,0.00,,,0.00,WUHU216HW,2013-09-19 12:30:00,
2013-09-19 08:35:00,52.2,48.7,30.03,WSW,248,0.2,0.2,88,0.00,,,0.00,WUHU216HW,2013-09-19 12:35:00,
2013-09-19 08:40:00,52.6,48.8,30.03,SSE,158,0.0,0.9,87,0.00,,,0.00,WUHU216HW,2013-09-19 12:40:00,
2013-09-19 08:45:00,52.9,49.2,30.03,East,90,0.2,0.9,87,0.00,,,0.00,WUHU216HW,2013-09-19 12:45:00,
2013-09-19 08:50:00,53.3,49.1,30.03,ENE,68,0.0,0.2,86,0.00,,,0.00,WUHU216HW,2013-09-19 12:50:00,
2013-09-19 08:55:00,54.2,50.0,30.03,NNE,23,0.2,0.2,86,0.00,,,0.00,WUHU216HW,2013-09-19 12:55:00,
2013-09-19 09:00:00,54.5,50.1,30.03,ESE,113,0.0,0.4,85,0.00,,,0.00,WUHU216HW,2013-09-19 13:00:00,
2013-09-19 09:05:00,55.1,50.3,30.03,ESE,113,0.0,0.4,84,0.00,,,0.00,WUHU216HW,2013-09-19 13:05:00,
2013-09-19 09:10:00,55.4,50.3,30.03,SW,225,0.5,1.3,83,0.00,,,0.00,WUHU216HW,2013-09-19 13:10:00,
2013-09-19 09:15:00,56.0,50.9,30.03,SW,225,0.0,1.3,83,0.00,,,0.00,WUHU216HW,2013-09-19 13:15:00,
2013-09-19 09:20:00,56.5,51.4,30.03,SSW,203,0.0,0.4,83,0.00,,,0.00,WUHU216HW,2013-09-19 13:20:00,
2013-09-19 09:25:00,57.1,51.9,30.03,SSE,148,0.4,0.4,83,0.00,,,0.00,WUHU216HW,2013-09-19 13:25:00,
2013-09-19 09:30:00,57.6,52.1,30.03,NNE,23,0.4,0.9,82,0.00,,,0.00,WUHU216HW,2013-09-19 13:30:00,
2013-09-19 09:35:00,58.3,52.8,30.03,WSW,248,0.6,1.1,82,0.00,,,0.00,WUHU216HW,2013-09-19 13:35:00,
2013-09-19 09:40:00,59.0,53.3,30.03,WSW,248,0.4,1.1,81,0.00,,,0.00,WUHU216HW,2013-09-19 13:40:00,
2013-09-19 09:45:00,59.6,53.1,30.03,East,90,1.1,1.8,79,0.00,,,0.00,WUHU216HW,2013-09-19 13:45:00,
2013-09-19 09:50:00,60.1,53.3,30.03,East,90,1.6,1.8,78,0.00,,,0.00,WUHU216HW,2013-09-19 13:50:00,
2013-09-19 09:55:00,60.5,53.3,30.03,ENE,68,1.8,1.8,77,0.00,,,0.00,WUHU216HW,2013-09-19 13:55:00,
2013-09-19 10:00:00,61.0,53.8,30.03,East,90,1.8,1.8,77,0.00,,,0.00,WUHU216HW,2013-09-19 14:00:00,
2013-09-19 10:05:00,61.6,53.9,30.03,SSW,203,0.7,1.8,76,0.00,,,0.00,WUHU216HW,2013-09-19 14:05:00,
2013-09-19 10:10:00,62.5,54.7,30.03,NE,53,1.0,1.8,76,0.00,,,0.00,WUHU216HW,2013-09-19 14:10:00,
2013-09-19 10:15:00,63.4,55.6,30.03,NNE,23,0.9,1.8,76,0.00,,,0.00,WUHU216HW,2013-09-19 14:15:00,
2013-09-19 10:20:00,64.3,56.9,30.03,SW,225,0.9,1.3,77,0.00,,,0.00,WUHU216HW,2013-09-19 14:20:00,
2013-09-19 10:25:00,65.0,57.6,30.03,ESE,112,0.3,1.3,77,0.00,,,0.00,WUHU216HW,2013-09-19 14:25:00,
2013-09-19 10:30:00,65.5,58.2,30.02,South,181,0.8,2.5,77,0.00,,,0.00,WUHU216HW,2013-09-19 14:30:00,
2013-09-19 10:35:00,66.1,58.2,30.02,SSW,192,0.9,2.5,76,0.00,,,0.00,WUHU216HW,2013-09-19 14:35:00,
2013-09-19 10:40:00,66.6,58.4,30.03,SSW,206,1.4,1.6,75,0.00,,,0.00,WUHU216HW,2013-09-19 14:40:00,
2013-09-19 10:45:00,67.0,58.4,30.03,SSW,203,1.3,2.2,74,0.00,,,0.00,WUHU216HW,2013-09-19 14:45:00,
2013-09-19 10:50:00,67.7,59.5,30.03,SW,223,1.3,2.2,75,0.00,,,0.00,WUHU216HW,2013-09-19 14:50:00,
2013-09-19 10:55:00,68.0,59.5,30.03,ENE,69,1.0,1.8,74,0.00,,,0.00,WUHU216HW,2013-09-19 14:55:00,
2013-09-19 11:00:00,68.6,59.6,30.03,ENE,67,1.3,2.2,73,0.00,,,0.00,WUHU216HW,2013-09-19 15:00:00,
2013-09-19 11:05:00,68.9,60.0,30.03,East,90,0.7,2.2,73,0.00,,,0.00,WUHU216HW,2013-09-19 15:05:00,
2013-09-19 11:10:00,69.5,59.2,30.03,SSW,203,1.8,1.8,70,0.00,,,0.00,WUHU216HW,2013-09-19 15:10:00,
2013-09-19 11:15:00,69.8,59.1,30.02,NW,315,0.7,1.8,69,0.00,,,0.00,WUHU216HW,2013-09-19 15:15:00,
2013-09-19 11:20:00,70.2,59.5,30.02,SSW,213,1.0,1.8,69,0.00,,,0.00,WUHU216HW,2013-09-19 15:20:00,
2013-09-19 11:25:00,70.6,59.5,30.02,SW,225,0.4,1.1,68,0.00,,,0.00,WUHU216HW,2013-09-19 15:25:00,
2013-09-19 11:30:00,70.6,57.8,30.02,SE,135,0.4,1.1,64,0.00,,,0.00,WUHU216HW,2013-09-19 15:30:00,
2013-09-19 11:35:00,70.7,58.0,30.02,SW,225,1.1,1.1,64,0.00,,,0.00,WUHU216HW,2013-09-19 15:35:00,
2013-09-19 11:40:00,71.3,58.1,30.02,SSW,212,0.8,1.3,63,0.00,,,0.00,WUHU216HW,2013-09-19 15:40:00,
2013-09-19 11:45:00,71.6,58.3,30.02,SW,231,1.4,2.5,63,0.00,,,0.00,WUHU216HW,2013-09-19 15:45:00,
2013-09-19 11:50:00,71.8,58.1,30.02,WSW,248,1.1,2.5,62,0.00,,,0.00,WUHU216HW,2013-09-19 15:50:00,
2013-09-19 11:55:00,72.4,58.1,30.01,SSW,203,1.6,1.6,61,0.00,,,0.00,WUHU216HW,2013-09-19 15:55:00,
2013-09-19 12:00:00,72.7,58.5,30.01,East,90,1.3,2.2,61,0.00,,,0.00,WUHU216HW,2013-09-19 16:00:00,
2013-09-19 12:05:00,72.7,57.1,30.01,WSW,248,0.9,2.2,58,0.00,,,0.00,WUHU216HW,2013-09-19 16:05:00,
2013-09-19 12:10:00,72.9,57.7,30.01,SW,230,1.0,1.3,59,0.00,,,0.00,WUHU216HW,2013-09-19 16:10:00,
2013-09-19 12:15:00,73.3,58.1,30.01,SW,225,2.2,2.2,59,0.00,,,0.00,WUHU216HW,2013-09-19 16:15:00,
2013-09-19 12:20:00,73.8,58.5,30.01,SSW,211,0.7,2.2,59,0.00,,,0.00,WUHU216HW,2013-09-19 16:20:00,
2013-09-19 12:25:00,73.8,58.1,30.01,East,90,1.1,2.2,58,0.00,,,0.00,WUHU216HW,2013-09-19 16:25:00,
2013-09-19 12:30:00,74.0,57.7,30.01,ENE,70,1.1,1.8,57,0.00,,,0.00,WUHU216HW,2013-09-19 16:30:00,
2013-09-19 12:35:00,74.2,57.9,30.01,South,180,1.1,1.6,57,0.00,,,0.00,WUHU216HW,2013-09-19 16:35:00,
2013-09-19 12:40:00,74.3,57.1,30.01,SSW,203,2.0,2.0,55,0.00,,,0.00,WUHU216HW,2013-09-19 16:40:00,
2013-09-19 12:45:00,74.5,56.7,30.01,South,180,1.8,2.0,54,0.00,,,0.00,WUHU216HW,2013-09-19 16:45:00,
2013-09-19 12:50:00,74.3,57.1,30.01,ENE,68,1.6,2.0,55,0.00,,,0.00,WUHU216HW,2013-09-19 16:50:00,
2013-09-19 12:55:00,74.3,56.1,30.01,ENE,68,0.4,1.8,53,0.00,,,0.00,WUHU216HW,2013-09-19 16:55:00,
2013-09-19 13:00:00,74.3,56.1,30.01,ENE,68,1.1,2.0,53,0.00,,,0.00,WUHU216HW,2013-09-19 17:00:00,
2013-09-19 13:05:00,74.2,55.9,30.01,South,180,1.8,2.0,53,0.00,,,0.00,WUHU216HW,2013-09-19 17:05:00,
2013-09-19 13:10:00,74.2,55.4,30.01,NE,47,1.4,2.2,52,0.00,,,0.00,WUHU216HW,2013-09-19 17:10:00,
2013-09-19 13:15:00,74.2,55.9,30.00,SW,225,1.3,2.2,53,0.00,,,0.00,WUHU216HW,2013-09-19 17:15:00,
2013-09-19 13:20:00,74.7,56.9,30.00,ENE,68,2.2,2.2,54,0.00,,,0.00,WUHU216HW,2013-09-19 17:20:00,
2013-09-19 13:25:00,75.1,56.8,30.00,WSW,238,0.9,2.2,53,0.00,,,0.00,WUHU216HW,2013-09-19 17:25:00,
2013-09-19 13:30:00,75.2,56.4,30.00,SSE,162,0.4,2.2,52,0.00,,,0.00,WUHU216HW,2013-09-19 17:30:00,
2013-09-19 13:35:00,74.9,56.1,30.00,ENE,73,1.2,3.1,52,0.00,,,0.00,WUHU216HW,2013-09-19 17:35:00,
2013-09-19 13:40:00,74.9,56.1,30.00,SW,214,1.5,3.1,52,0.00,,,0.00,WUHU216HW,2013-09-19 17:40:00,
2013-09-19 13:45:00,74.9,56.6,30.00,SSW,203,1.3,1.8,53,0.00,,,0.00,WUHU216HW,2013-09-19 17:45:00,
2013-09-19 13:50:00,75.2,57.0,29.99,SSE,159,1.0,1.8,53,0.00,,,0.00,WUHU216HW,2013-09-19 17:50:00,
2013-09-19 13:55:00,75.2,57.0,29.99,NNW,338,0.2,1.8,53,0.00,,,0.00,WUHU216HW,2013-09-19 17:55:00,
2013-09-19 14:00:00,75.4,56.6,29.99,SW,225,0.9,1.1,52,0.00,,,0.00,WUHU216HW,2013-09-19 18:00:00,
2013-09-19 14:05:00,75.4,57.2,29.99,SW,225,1.8,2.9,53,0.00,,,0.00,WUHU216HW,2013-09-19 18:05:00,
2013-09-19 14:10:00,75.6,56.8,29.99,SSW,203,1.1,2.9,52,0.00,,,0.00,WUHU216HW,2013-09-19 18:10:00,
2013-09-19 14:15:00,75.8,57.4,29.99,South,173,1.6,3.1,53,0.00,,,0.00,WUHU216HW,2013-09-19 18:15:00,
2013-09-19 14:20:00,76.0,57.1,29.99,SW,225,0.4,3.1,52,0.00,,,0.00,WUHU216HW,2013-09-19 18:20:00,
2013-09-19 14:25:00,76.0,57.1,29.98,ESE,113,1.8,2.0,52,0.00,,,0.00,WUHU216HW,2013-09-19 18:25:00,
2013-09-19 14:30:00,75.8,57.0,29.98,ENE,62,1.7,2.0,52,0.00,,,0.00,WUHU216HW,2013-09-19 18:30:00,
2013-09-19 14:35:00,75.2,56.0,29.98,SSW,203,1.1,2.0,51,0.00,,,0.00,WUHU216HW,2013-09-19 18:35:00,
2013-09-19 14:40:00,75.4,57.2,29.99,East,90,1.1,3.4,53,0.00,,,0.00,WUHU216HW,2013-09-19 18:40:00,
2013-09-19 14:45:00,75.2,56.4,29.98,East,93,0.9,3.4,52,0.00,,,0.00,WUHU216HW,2013-09-19 18:45:00,
2013-09-19 14:50:00,75.2,56.4,29.98,SSW,203,1.1,1.8,52,0.00,,,0.00,WUHU216HW,2013-09-19 18:50:00,
2013-09-19 14:55:00,75.4,56.6,29.98,SSW,203,1.6,1.6,52,0.00,,,0.00,WUHU216HW,2013-09-19 18:55:00,
2013-09-19 15:00:00,75.8,57.0,29.98,SW,225,0.0,2.2,52,0.00,,,0.00,WUHU216HW,2013-09-19 19:00:00,
2013-09-19 15:05:00,75.6,56.3,29.98,SSW,203,2.5,2.5,51,0.00,,,0.00,WUHU216HW,2013-09-19 19:05:00,
2013-09-19 15:10:00,75.6,56.3,29.97,SW,225,1.3,2.5,51,0.00,,,0.00,WUHU216HW,2013-09-19 19:10:00,
2013-09-19 15:15:00,75.8,56.4,29.97,SSW,211,1.0,2.5,51,0.00,,,0.00,WUHU216HW,2013-09-19 19:15:00,
2013-09-19 15:20:00,76.0,56.6,29.97,WSW,248,0.2,1.8,51,0.00,,,0.00,WUHU216HW,2013-09-19 19:20:00,
2013-09-19 15:25:00,75.8,55.9,29.97,SSW,203,1.1,1.1,50,0.00,,,0.00,WUHU216HW,2013-09-19 19:25:00,
2013-09-19 15:30:00,75.6,55.8,29.97,SSW,203,0.9,1.6,50,0.00,,,0.00,WUHU216HW,2013-09-19 19:30:00,
2013-09-19 15:35:00,75.2,55.4,29.97,NNE,23,0.0,1.6,50,0.00,,,0.00,WUHU216HW,2013-09-19 19:35:00,
2013-09-19 15:40:00,75.2,55.4,29.97,NNW,338,0.0,0.9,50,0.00,,,0.00,WUHU216HW,2013-09-19 19:40:00,
2013-09-19 15:45:00,75.1,55.3,29.97,SW,225,0.7,1.6,50,0.00,,,0.00,WUHU216HW,2013-09-19 19:45:00,
2013-09-19 15:50:00,74.9,54.5,29.97,SW,225,0.0,1.6,49,0.00,,,0.00,WUHU216HW,2013-09-19 19:50:00,
2013-09-19 15:55:00,74.7,54.9,29.96,SW,225,0.0,0.7,50,0.00,,,0.00,WUHU216HW,2013-09-19 19:55:00,
2013-09-19 16:00:00,74.5,54.1,29.96,SW,225,0.7,1.6,49,0.00,,,0.00,WUHU216HW,2013-09-19 20:00:00,
2013-09-19 16:05:00,74.3,54.5,29.97,SW,225,0.9,1.6,50,0.00,,,0.00,WUHU216HW,2013-09-19 20:05:00,
2013-09-19 16:10:00,74.2,54.4,29.96,SW,225,0.4,1.3,50,0.00,,,0.00,WUHU216HW,2013-09-19 20:10:00,
2013-09-19 16:15:00,74.0,54.2,29.96,NW,315,0.2,0.4,50,0.00,,,0.00,WUHU216HW,2013-09-19 20:15:00,
2013-09-19 16:20:00,73.8,54.0,29.96,SW,225,1.8,1.8,50,0.00,,,0.00,WUHU216HW,2013-09-19 20:20:00,
2013-09-19 16:25:00,73.4,54.2,29.96,NNE,23,0.2,1.8,51,0.00,,,0.00,WUHU216HW,2013-09-19 20:25:00,
2013-09-19 16:30:00,73.1,53.8,29.96,SSW,203,0.4,1.8,51,0.00,,,0.00,WUHU216HW,2013-09-19 20:30:00,
2013-09-19 16:35:00,73.1,54.4,29.96,SSW,203,0.2,0.4,52,0.00,,,0.00,WUHU216HW,2013-09-19 20:35:00,
2013-09-19 16:40:00,72.9,54.2,29.96,SW,225,0.2,0.9,52,0.00,,,0.00,WUHU216HW,2013-09-19 20:40:00,
2013-09-19 16:45:00,72.7,54.6,29.96,WSW,248,0.0,0.9,53,0.00,,,0.00,WUHU216HW,2013-09-19 20:45:00,
2013-09-19 16:50:00,72.4,54.2,29.96,SW,225,0.0,1.3,53,0.00,,,0.00,WUHU216HW,2013-09-19 20:50:00,
2013-09-19 16:55:00,72.2,54.6,29.96,SW,225,0.0,1.3,54,0.00,,,0.00,WUHU216HW,2013-09-19 20:55:00,
2013-09-19 17:00:00,72.0,54.4,29.96,SSW,203,0.9,1.8,54,0.00,,,0.00,WUHU216HW,2013-09-19 21:00:00,
2013-09-19 17:05:00,71.8,53.7,29.96,SW,225,0.0,1.8,53,0.00,,,0.00,WUHU216HW,2013-09-19 21:05:00,
2013-09-19 17:10:00,71.5,53.9,29.96,SW,225,0.0,0.9,54,0.00,,,0.00,WUHU216HW,2013-09-19 21:10:00,
2013-09-19 17:15:00,71.3,53.7,29.96,SW,225,0.0,0.0,54,0.00,,,0.00,WUHU216HW,2013-09-19 21:15:00,
2013-09-19 17:20:00,71.1,53.6,29.96,SW,225,0.0,0.0,54,0.00,,,0.00,WUHU216HW,2013-09-19 21:20:00,
2013-09-19 17:25:00,70.7,53.2,29.96,SW,225,0.0,0.4,54,0.00,,,0.00,WUHU216HW,2013-09-19 21:25:00,
2013-09-19 17:30:00,70.6,53.6,29.96,SW,225,0.0,0.4,55,0.00,,,0.00,WUHU216HW,2013-09-19 21:30:00,
2013-09-19 17:35:00,70.2,53.3,29.96,SW,225,0.0,0.0,55,0.00,,,0.00,WUHU216HW,2013-09-19 21:35:00,
2013-09-19 17:40:00,69.8,52.9,29.96,SW,225,0.0,0.0,55,0.00,,,0.00,WUHU216HW,2013-09-19 21:40:00,
2013-09-19 17:45:00,69.5,53.1,29.96,SW,225,0.0,0.0,56,0.00,,,0.00,WUHU216HW,2013-09-19 21:45:00,
2013-09-19 17:50:00,69.1,52.8,29.96,SW,225,0.0,0.0,56,0.00,,,0.00,WUHU216HW,2013-09-19 21:50:00,
2013-09-19 17:55:00,68.8,52.9,29.96,SW,225,0.0,0.0,57,0.00,,,0.00,WUHU216HW,2013-09-19 21:55:00,
2013-09-19 18:00:00,68.4,53.0,29.96,SW,225,0.0,0.0,58,0.00,,,0.00,WUHU216HW,2013-09-19 22:00:00,
2013-09-19 18:05:00,68.4,53.6,29.96,SW,225,0.4,0.4,59,0.00,,,0.00,WUHU216HW,2013-09-19 22:05:00,
2013-09-19 18:10:00,68.0,53.2,29.96,SW,225,0.0,0.4,59,0.00,,,0.00,WUHU216HW,2013-09-19 22:10:00,
2013-09-19 18:15:00,68.0,53.2,29.96,SW,225,0.0,0.0,59,0.00,,,0.00,WUHU216HW,2013-09-19 22:15:00,
2013-09-19 18:20:00,67.7,52.8,29.96,SW,225,0.0,0.0,59,0.00,,,0.00,WUHU216HW,2013-09-19 22:20:00,
2013-09-19 18:25:00,67.1,52.8,29.96,SW,225,0.0,0.0,60,0.00,,,0.00,WUHU216HW,2013-09-19 22:25:00,
2013-09-19 18:30:00,67.0,52.7,29.96,SW,225,0.0,0.0,60,0.00,,,0.00,WUHU216HW,2013-09-19 22:30:00,
2013-09-19 18:35:00,66.6,52.7,29.96,SW,225,0.0,0.0,61,0.00,,,0.00,WUHU216HW,2013-09-19 22:35:00,
2013-09-19 18:40:00,65.9,52.9,29.96,SW,225,0.0,0.0,63,0.00,,,0.00,WUHU216HW,2013-09-19 22:40:00,
2013-09-19 18:45:00,65.2,52.2,29.96,SW,225,0.0,0.0,63,0.00,,,0.00,WUHU216HW,2013-09-19 22:45:00,
2013-09-19 18:50:00,64.6,52.1,29.96,SW,225,0.0,0.0,64,0.00,,,0.00,WUHU216HW,2013-09-19 22:50:00,
2013-09-19 18:55:00,64.1,52.0,29.96,SW,225,0.0,0.0,65,0.00,,,0.00,WUHU216HW,2013-09-19 22:55:00,
2013-09-19 19:00:00,63.7,51.7,29.96,SW,225,0.0,0.0,65,0.00,,,0.00,WUHU216HW,2013-09-19 23:00:00,
2013-09-19 19:05:00,63.0,51.8,29.96,SW,225,0.0,0.0,67,0.00,,,0.00,WUHU216HW,2013-09-19 23:05:00,
2013-09-19 19:10:00,62.3,51.6,29.96,SW,225,0.0,0.0,68,0.00,,,0.00,WUHU216HW,2013-09-19 23:10:00,
2013-09-19 19:15:00,61.9,51.7,29.97,SW,225,0.0,0.0,69,0.00,,,0.00,WUHU216HW,2013-09-19 23:15:00,
2013-09-19 19:20:00,61.6,51.4,29.97,SW,225,0.0,0.0,69,0.00,,,0.00,WUHU216HW,2013-09-19 23:20:00,
2013-09-19 19:25:00,61.0,50.9,29.96,SW,225,0.0,0.0,69,0.00,,,0.00,WUHU216HW,2013-09-19 23:25:00,
2013-09-19 19:30:00,60.8,51.1,29.97,SW,225,0.0,0.0,70,0.00,,,0.00,WUHU216HW,2013-09-19 23:30:00,
2013-09-19 19:35:00,60.5,50.8,29.97,SW,225,0.0,0.0,70,0.00,,,0.00,WUHU216HW,2013-09-19 23:35:00,
2013-09-19 19:40:00,60.1,50.8,29.97,SW,225,0.0,0.0,71,0.00,,,0.00,WUHU216HW,2013-09-19 23:40:00,
2013-09-19 19:45:00,59.8,50.4,29.97,SW,225,0.0,0.0,71,0.00,,,0.00,WUHU216HW,2013-09-19 23:45:00,
2013-09-19 19:50:00,59.4,50.4,29.97,SW,225,0.0,0.0,72,0.00,,,0.00,WUHU216HW,2013-09-19 23:50:00,
2013-09-19 19:55:00,59.2,50.2,29.97,SW,225,0.0,0.0,72,0.00,,,0.00,WUHU216HW,2013-09-19 23:55:00,
2013-09-19 20:00:00,58.9,50.2,29.98,SW,225,0.0,0.0,73,0.00,,,0.00,WUHU216HW,2013-09-20 00:00:00,
2013-09-19 20:05:00,58.5,49.9,29.97,SW,225,0.0,0.0,73,0.00,,,0.00,WUHU216HW,2013-09-20 00:05:00,
2013-09-19 20:10:00,58.3,49.7,29.98,SW,225,0.0,0.0,73,0.00,,,0.00,WUHU216HW,2013-09-20 00:10:00,
2013-09-19 20:15:00,58.0,49.3,29.98,SW,225,0.0,0.0,73,0.00,,,0.00,WUHU216HW,2013-09-20 00:15:00,
2013-09-19 20:20:00,57.8,49.5,29.98,SW,225,0.0,0.0,74,0.00,,,0.00,WUHU216HW,2013-09-20 00:20:00,
2013-09-19 20:25:00,57.6,49.3,29.98,SW,225,0.0,0.0,74,0.00,,,0.00,WUHU216HW,2013-09-20 00:25:00,
2013-09-19 20:30:00,57.2,49.3,29.98,SW,225,0.0,0.0,75,0.00,,,0.00,WUHU216HW,2013-09-20 00:30:00,
2013-09-19 20:35:00,57.1,49.5,29.98,SW,225,0.0,0.0,76,0.00,,,0.00,WUHU216HW,2013-09-20 00:35:00,
2013-09-19 20:40:00,56.7,49.1,29.98,SW,225,0.0,0.0,76,0.00,,,0.00,WUHU216HW,2013-09-20 00:40:00,
2013-09-19 20:45:00,56.5,49.0,29.98,SW,225,0.0,0.0,76,0.00,,,0.00,WUHU216HW,2013-09-20 00:45:00,
2013-09-19 20:50:00,56.5,49.0,29.98,SW,225,0.0,0.0,76,0.00,,,0.00,WUHU216HW,2013-09-20 00:50:00,
2013-09-19 20:55:00,56.3,49.1,29.98,SW,225,0.0,0.0,77,0.00,,,0.00,WUHU216HW,2013-09-20 00:55:00,
2013-09-19 21:00:00,56.0,48.8,29.98,SW,225,0.0,0.0,77,0.00,,,0.00,WUHU216HW,2013-09-20 01:00:00,
2013-09-19 21:05:00,55.8,49.0,29.98,SW,225,0.0,0.0,78,0.00,,,0.00,WUHU216HW,2013-09-20 01:05:00,
2013-09-19 21:10:00,55.8,49.0,29.98,SW,225,0.0,0.0,78,0.00,,,0.00,WUHU216HW,2013-09-20 01:10:00,
2013-09-19 21:15:00,55.6,49.1,29.98,SW,225,0.0,0.0,79,0.00,,,0.00,WUHU216HW,2013-09-20 01:15:00,
2013-09-19 21:20:00,55.4,49.0,29.98,SW,225,0.0,0.0,79,0.00,,,0.00,WUHU216HW,2013-09-20 01:20:00,
2013-09-19 21:25:00,55.3,48.5,29.98,SW,225,0.0,0.0,78,0.00,,,0.00,WUHU216HW,2013-09-20 01:25:00,
2013-09-19 21:30:00,55.1,48.3,29.98,West,270,0.0,0.0,78,0.00,,,0.00,WUHU216HW,2013-09-20 01:30:00,
2013-09-19 21:35:00,55.1,48.3,29.98,West,270,0.0,0.0,78,0.00,,,0.00,WUHU216HW,2013-09-20 01:35:00,